Terminal Aerodrome Forecast
Issued by NWS

Home | Current Version | Previous Version | Text Only | Print | Product List | Glossary On
Versions: 1 2 3 4 5 6 7 8 9 10 11 12 13 14 15 16 17
000
FTUS43 KDMX 252320
TAFFOD
TAF
KFOD 252320Z 2600/2624 20007KT P6SM SCT050 BKN150
     FM260500 VRB06KT P6SM VCTS SCT040CB BKN080
     FM260900 19004KT P6SM SCT050 BKN200=

USA.gov is the U.S. government's official web portal to all federal, state and local government web resources and services.